createdAt,value
2022-12-17T00:02:04.248Z,112.68
2022-12-17T00:06:24.656Z,115.15
2022-12-17T00:10:44.908Z,127.05
2022-12-17T00:15:05.439Z,120.00
2022-12-17T00:19:25.518Z,115.32
2022-12-17T00:23:46.168Z,114.43
2022-12-17T00:28:06.472Z,110.18
2022-12-17T00:32:28.194Z,113.32
2022-12-17T00:36:48.756Z,118.70
2022-12-17T00:41:10.277Z,128.63
2022-12-17T00:45:30.693Z,106.90
2022-12-17T00:49:51.911Z,113.55
2022-12-17T00:54:12.270Z,119.47
2022-12-17T00:58:33.856Z,109.97
2022-12-17T01:02:54.344Z,112.82
2022-12-17T01:07:14.836Z,118.97
2022-12-17T01:11:35.338Z,110.45
2022-12-17T01:15:56.710Z,112.47
2022-12-17T01:20:17.480Z,124.38
2022-12-17T01:24:37.746Z,124.38
2022-12-17T01:28:59.449Z,106.20
2022-12-17T01:33:25.222Z,115.03
2022-12-17T01:37:45.594Z,131.05
2022-12-17T01:42:06.144Z,121.00
2022-12-17T01:46:27.219Z,119.88
2022-12-17T01:50:52.503Z,124.57
2022-12-17T01:55:13.112Z,119.72
2022-12-17T01:59:36.758Z,116.00
2022-12-17T02:03:59.230Z,118.95
2022-12-17T02:08:43.469Z,111.43
2022-12-17T02:13:11.197Z,127.80
2022-12-17T02:17:38.019Z,126.35
2022-12-17T02:22:01.355Z,121.45
2022-12-17T02:26:30.145Z,124.25
2022-12-17T02:30:52.214Z,115.38
2022-12-17T02:35:13.829Z,127.57
2022-12-17T02:39:33.967Z,122.05
2022-12-17T02:43:55.383Z,115.38
2022-12-17T02:48:15.652Z,120.90
2022-12-17T02:52:39.469Z,109.47
2022-12-17T02:57:00.531Z,121.22
2022-12-17T03:01:21.326Z,128.20
2022-12-17T03:05:45.746Z,108.25
2022-12-17T03:10:06.911Z,106.22
2022-12-17T03:14:27.379Z,106.43
2022-12-17T03:18:48.032Z,108.57
2022-12-17T03:23:08.062Z,109.97
2022-12-17T03:27:28.497Z,103.75
2022-12-17T03:31:49.085Z,112.80
2022-12-17T03:36:12.017Z,113.82
2022-12-17T03:40:32.518Z,109.53
2022-12-17T03:44:53.434Z,111.20
2022-12-17T03:49:13.627Z,108.22
2022-12-17T03:53:34.601Z,109.70
2022-12-17T03:57:54.855Z,107.03
2022-12-17T04:02:16.234Z,117.03
2022-12-17T04:06:36.421Z,102.80
2022-12-17T04:10:56.979Z,104.60
2022-12-17T04:15:17.899Z,100.45
2022-12-17T04:19:38.482Z,108.88
2022-12-17T04:23:58.801Z,100.65
2022-12-17T04:28:19.489Z,95.88
2022-12-17T04:32:40.252Z,103.43
2022-12-17T04:37:00.760Z,95.50
2022-12-17T04:41:20.810Z,94.78
2022-12-17T04:45:41.188Z,93.10
2022-12-17T04:50:01.326Z,100.85
2022-12-17T04:54:21.874Z,97.32
2022-12-17T04:58:41.873Z,95.00
2022-12-17T05:03:02.182Z,92.10
2022-12-17T05:07:22.734Z,100.47
2022-12-17T05:11:43.475Z,95.90
2022-12-17T05:16:04.205Z,108.43
2022-12-17T05:20:25.170Z,93.80
2022-12-17T05:24:45.520Z,92.35
2022-12-17T05:29:07.226Z,95.30
2022-12-17T05:33:29.106Z,92.88
2022-12-17T05:37:50.188Z,92.88
2022-12-17T05:42:10.436Z,93.10
2022-12-17T05:46:31.144Z,87.45
2022-12-17T05:50:51.277Z,93.90
2022-12-17T05:55:11.726Z,92.88
2022-12-17T05:59:31.933Z,94.78
2022-12-17T06:03:53.052Z,108.10
2022-12-17T06:08:21.332Z,99.03
2022-12-17T06:12:41.773Z,102.70
2022-12-17T06:17:02.267Z,106.68
2022-12-17T06:21:22.675Z,97.32
2022-12-17T06:25:47.282Z,104.70
2022-12-17T06:30:08.072Z,97.15
2022-12-17T06:34:28.102Z,92.80
2022-12-17T06:38:48.508Z,95.53
2022-12-17T06:43:15.849Z,95.32
2022-12-17T06:47:36.979Z,107.20
2022-12-17T06:51:57.051Z,103.15
2022-12-17T06:56:18.220Z,93.78
2022-12-17T07:00:38.641Z,101.35
2022-12-17T07:04:59.275Z,109.68
2022-12-17T07:09:20.231Z,94.22
2022-12-17T07:13:40.923Z,102.57
2022-12-17T07:18:01.306Z,97.03
2022-12-17T07:22:21.847Z,97.95
2022-12-17T07:26:43.904Z,110.68
2022-12-17T07:31:04.632Z,102.93
2022-12-17T07:35:25.711Z,93.40
2022-12-17T07:39:46.114Z,101.15
2022-12-17T07:44:06.788Z,99.03
2022-12-17T07:48:27.081Z,91.78
2022-12-17T07:52:58.248Z,97.18
2022-12-17T07:57:18.839Z,98.68
2022-12-17T08:01:39.160Z,93.72
2022-12-17T08:05:59.860Z,97.63
2022-12-17T08:10:19.877Z,97.00
2022-12-17T08:14:40.474Z,96.90
2022-12-17T08:19:01.351Z,95.30
2022-12-17T08:23:23.540Z,89.28
2022-12-17T08:27:43.781Z,83.80
2022-12-17T08:32:04.577Z,86.93
2022-12-17T08:36:24.985Z,90.78
2022-12-17T08:40:45.602Z,95.10
2022-12-17T08:45:06.164Z,104.50
2022-12-17T08:49:26.855Z,102.05
2022-12-17T08:53:49.830Z,90.93
2022-12-17T08:58:15.561Z,103.85
2022-12-17T09:02:35.680Z,99.13
2022-12-17T09:06:56.085Z,89.53
2022-12-17T09:11:18.668Z,89.22
2022-12-17T09:15:38.960Z,87.45
2022-12-17T09:19:59.096Z,100.72
2022-12-17T09:24:19.455Z,103.30
2022-12-17T09:28:39.537Z,105.47
2022-12-17T09:32:59.875Z,106.32
2022-12-17T09:37:21.075Z,101.97
2022-12-17T09:41:46.294Z,104.05
2022-12-17T09:46:12.444Z,102.05
2022-12-17T09:50:35.042Z,109.97
2022-12-17T09:55:10.458Z,101.82
2022-12-17T09:59:39.562Z,110.75
2022-12-17T10:04:03.446Z,106.38
2022-12-17T10:08:26.132Z,112.82
2022-12-17T10:12:46.641Z,97.22
2022-12-17T10:17:11.695Z,106.53
2022-12-17T10:21:32.541Z,104.72
2022-12-17T10:25:54.270Z,101.63
2022-12-17T10:30:14.791Z,110.85
2022-12-17T10:34:37.804Z,103.38
2022-12-17T10:38:59.267Z,103.90
2022-12-17T10:43:19.925Z,97.85
2022-12-17T10:48:03.010Z,99.55
2022-12-17T10:52:49.337Z,92.35
2022-12-17T10:57:11.874Z,94.53
2022-12-17T11:01:43.237Z,102.88
2022-12-17T11:06:04.195Z,111.28
2022-12-17T11:10:32.302Z,107.13
2022-12-17T11:15:03.814Z,106.55
2022-12-17T11:19:30.088Z,94.43
2022-12-17T11:23:53.102Z,101.30
2022-12-17T11:28:23.934Z,101.32
2022-12-17T11:33:13.858Z,96.82
2022-12-17T11:37:38.809Z,97.47
2022-12-17T11:42:14.656Z,109.32
2022-12-17T11:47:14.837Z,106.57
2022-12-17T11:51:59.619Z,116.85
2022-12-17T11:56:34.767Z,104.28
2022-12-17T12:01:02.733Z,118.70
2022-12-17T12:06:20.961Z,98.28
2022-12-17T12:10:51.684Z,102.38
2022-12-17T12:15:39.366Z,98.95
2022-12-17T12:20:08.163Z,90.18
2022-12-17T12:29:08.032Z,94.45
2022-12-17T12:33:48.219Z,94.90
2022-12-17T12:38:09.021Z,93.95
2022-12-17T12:42:44.686Z,98.75
2022-12-17T12:47:25.481Z,95.70
2022-12-17T12:51:49.000Z,97.28
2022-12-17T12:56:09.669Z,97.43
2022-12-17T13:00:51.824Z,98.93
2022-12-17T13:05:23.508Z,94.80
2022-12-17T13:09:35.141Z,92.88
2022-12-17T13:13:55.826Z,88.80
2022-12-17T13:18:07.004Z,99.25
2022-12-17T13:22:11.435Z,96.88
2022-12-17T13:26:39.746Z,101.43
2022-12-17T13:34:58.481Z,90.68
2022-12-17T13:39:08.672Z,101.70
2022-12-17T13:43:19.146Z,107.78
2022-12-17T13:47:24.774Z,102.32
2022-12-17T13:51:32.327Z,94.70
2022-12-17T13:55:34.268Z,93.53
2022-12-17T13:59:36.368Z,95.70
2022-12-17T14:08:03.951Z,93.50
2022-12-17T14:12:22.540Z,93.05
2022-12-17T14:16:24.370Z,122.65
2022-12-17T14:20:30.299Z,139.90
2022-12-17T14:24:32.835Z,132.70
2022-12-17T14:28:37.801Z,122.18
2022-12-17T14:32:43.858Z,117.20
2022-12-17T14:36:46.908Z,107.25
2022-12-17T14:40:48.774Z,122.57
2022-12-17T14:45:00.658Z,125.50
2022-12-17T14:49:05.911Z,126.78
2022-12-17T14:53:27.560Z,120.47
2022-12-17T14:57:29.540Z,109.63
2022-12-17T15:01:31.912Z,129.40
2022-12-17T15:05:35.591Z,129.18
2022-12-17T15:09:37.911Z,116.60
2022-12-17T15:13:40.620Z,108.25
2022-12-17T15:17:42.651Z,106.35
2022-12-17T15:21:44.759Z,100.63
2022-12-17T15:25:48.418Z,93.70
2022-12-17T15:29:50.071Z,105.80
2022-12-17T15:33:52.058Z,99.82
2022-12-17T15:37:53.836Z,106.93
2022-12-17T15:42:14.798Z,106.82
2022-12-17T15:46:17.372Z,124.25
2022-12-17T15:50:19.327Z,120.25
2022-12-17T15:54:21.384Z,125.07
2022-12-17T15:58:22.993Z,138.73
2022-12-17T16:02:25.068Z,125.47
2022-12-17T16:06:26.860Z,132.15
2022-12-17T16:10:29.160Z,115.18
2022-12-17T16:14:30.803Z,131.98
2022-12-17T16:18:33.350Z,125.20
2022-12-17T16:22:35.247Z,130.43
2022-12-17T16:26:38.029Z,139.18
2022-12-17T16:30:40.826Z,147.30
2022-12-17T16:34:43.849Z,130.32
2022-12-17T16:38:47.318Z,123.15
2022-12-17T16:42:49.319Z,143.82
2022-12-17T16:46:52.302Z,148.77
2022-12-17T16:50:54.148Z,135.10
2022-12-17T16:54:56.073Z,124.43
2022-12-17T16:58:58.127Z,121.70
2022-12-17T17:02:59.823Z,116.90
2022-12-17T17:07:01.953Z,123.40
2022-12-17T17:11:21.627Z,136.13
2022-12-17T17:15:23.940Z,124.50
2022-12-17T17:19:25.893Z,122.72
2022-12-17T17:23:28.040Z,123.32
2022-12-17T17:27:29.790Z,120.65
2022-12-17T17:32:08.734Z,125.40
2022-12-17T17:35:57.468Z,126.10
2022-12-17T17:40:03.499Z,110.45
2022-12-17T17:44:08.212Z,110.57
2022-12-17T17:48:10.182Z,113.20
2022-12-17T17:52:12.527Z,126.80
2022-12-17T17:56:18.140Z,124.55
2022-12-17T18:00:19.988Z,118.13
2022-12-17T18:04:24.270Z,133.70
2022-12-17T18:08:29.461Z,120.90
2022-12-17T18:12:49.946Z,109.60
2022-12-17T18:16:52.273Z,104.50
2022-12-17T18:21:09.577Z,124.63
2022-12-17T18:25:11.853Z,116.80
2022-12-17T18:29:20.175Z,113.47
2022-12-17T18:33:22.256Z,116.15
2022-12-17T18:37:24.119Z,107.00
2022-12-17T18:41:45.031Z,102.75
2022-12-17T18:45:46.822Z,99.88
2022-12-17T18:49:48.901Z,105.78
2022-12-17T18:53:51.354Z,105.85
2022-12-17T18:57:53.441Z,101.53
2022-12-17T19:01:56.636Z,118.40
2022-12-17T19:05:59.087Z,103.57
2022-12-17T19:10:01.379Z,98.40
2022-12-17T19:14:03.360Z,91.53
2022-12-17T19:18:05.478Z,95.65
2022-12-17T19:22:08.423Z,103.07
2022-12-17T19:26:17.028Z,91.75
2022-12-17T19:30:19.327Z,107.38
2022-12-17T19:34:21.725Z,104.25
2022-12-17T19:38:24.209Z,105.18
2022-12-17T19:42:31.936Z,96.53
2022-12-17T19:46:37.257Z,102.05
2022-12-17T19:50:39.444Z,101.47
2022-12-17T19:54:41.584Z,109.10
2022-12-17T19:58:45.292Z,113.85
2022-12-17T20:02:47.683Z,97.85
2022-12-17T20:06:50.008Z,106.95
2022-12-17T20:10:51.840Z,99.35
2022-12-17T20:14:53.926Z,95.15
2022-12-17T20:18:58.266Z,96.07
2022-12-17T20:23:00.047Z,90.80
2022-12-17T20:27:02.216Z,98.07
2022-12-17T20:31:06.725Z,96.95
2022-12-17T20:35:09.145Z,97.20
2022-12-17T20:39:12.569Z,95.40
2022-12-17T20:43:14.498Z,96.25
2022-12-17T20:47:16.776Z,107.03
2022-12-17T20:51:24.949Z,110.68
2022-12-17T20:55:31.079Z,112.93
2022-12-17T20:59:33.714Z,84.27
2022-12-17T21:03:36.004Z,95.13
2022-12-17T21:07:37.903Z,92.40
2022-12-17T21:11:41.303Z,88.13
2022-12-17T21:15:49.545Z,99.57
2022-12-17T21:19:51.901Z,98.38
2022-12-17T21:23:55.559Z,94.97
2022-12-17T21:27:57.509Z,88.88
2022-12-17T21:31:59.760Z,100.70
2022-12-17T21:36:07.453Z,101.15
2022-12-17T21:40:10.749Z,109.03
2022-12-17T21:44:15.286Z,97.88
2022-12-17T21:48:17.380Z,114.75
2022-12-17T21:52:19.467Z,107.60
2022-12-17T21:56:22.025Z,109.80
2022-12-17T22:00:25.167Z,115.43
2022-12-17T22:04:27.041Z,115.03
2022-12-17T22:08:29.388Z,126.18
2022-12-17T22:12:50.134Z,129.93
2022-12-17T22:16:52.177Z,114.45
2022-12-17T22:20:59.786Z,113.35
2022-12-17T22:25:06.206Z,124.97
2022-12-17T22:29:09.711Z,119.35
2022-12-17T22:33:35.852Z,120.18
2022-12-17T22:40:02.771Z,104.07
2022-12-17T22:44:31.666Z,121.13
2022-12-17T22:46:36.184Z,113.13
2022-12-17T22:50:48.452Z,117.38
2022-12-17T22:55:01.156Z,113.70
2022-12-17T22:59:03.864Z,123.15
2022-12-17T23:03:06.156Z,117.35
2022-12-17T23:07:08.571Z,119.18
2022-12-17T23:11:13.943Z,107.25
2022-12-17T23:15:15.689Z,122.97
2022-12-17T23:19:18.295Z,120.93
2022-12-17T23:23:20.454Z,116.75
2022-12-17T23:27:22.319Z,116.63
2022-12-17T23:31:26.505Z,95.50
2022-12-17T23:35:28.440Z,102.93
2022-12-17T23:39:30.605Z,107.93
2022-12-17T23:43:33.074Z,101.75
2022-12-17T23:47:35.072Z,106.07
2022-12-17T23:51:36.915Z,101.40
2022-12-17T23:55:39.046Z,101.05
2022-12-17T23:59:40.891Z,115.38
